Main page
METAR-TAF:

METAR-TAF

Airports :

Pembrey Airport

Pembrey, Wales

latitude: 51-43N, longitude: 004-22W, elevation: 3 m

Current weather observation

The report was made 55 minutes ago, at 18:50 UTC
Wind 4 kt from the West/Southwest
Temperature 17°C
Humidity 88%
Pressure 1016 hPa
Visibility 10 km or more

METAR: EGOP 211850Z AUTO 25004KT 9999 // NCD 17/15 Q1016

Time: 20:45 (19:45 UTC)


TAF: missing

Weather observations and forecasts of more than 4000 airports (METAR and TAF reports).

The available stations are represented by yellow and red dots on the map.

Hover mouse over dot to see the name of the station.

Then click to see weather observations and forecasts.

To change the map : click on the green buttons with a black cross to zoom in, on the green button with a dash to zoom out, or on the green arrows for adjacent maps.


METAR-TAF: